Hallsville, Texas
Current Conditions -  °F | °C
As of 1:53 PM on Thursday 30 Oct 2014 (Local Time) from KGGG Reporting Station
Clear Clear  
Wind Chill: 72°   Ceiling: Unl
Heat Index: 72°   Visibility: 10mi
Dew Point: 41°   Wind: 8mph
Humidity: 33%   Direction: 180°S
Pressure: 30.11"   Gusts: NA
Location:  32.5°N, 94.57°W
Report Text: KGGG 301853Z 18007KT 160V230 10SM CLR 22/05 A3011 RMK AO2 SLP194 T02220050
Loading
Personal Weather Stations






























Interactive Weather Map
Tropical Storm Tracking
New forecast layout! Learn more

10-Day Weather Forecast

Advertisements
Track Severe Weather on mobile